TAF ENDU 0206/0306 VRB03KT 9999 FEW040
From batch tds/tafs/production/2022/10/2/h05_m59_tafs.cache.xml
Issued (37 minutes ago)
Forecasts TAF ENDU 0206/0306 VRB03KT 9999 FEW040
PROB30
TEMPO 0206/0208 1200 PRFG
PROB30
TEMPO 0221/0306 1200 PRFG
KLMT 020557Z 0206/0306 04004KT P6SM SKC
From batch tds/tafs/production/2022/10/2/h05_m59_tafs.cache.xml
Issued (37 minutes ago)
Forecasts KLMT 020557Z 0206/0306 04004KT P6SM SKC
KOTH 020557Z 0206/0306 14003KT 1/2SM FG VV002
From batch tds/tafs/production/2022/10/2/h05_m59_tafs.cache.xml
Issued (37 minutes ago)
Forecasts KOTH 020557Z 0206/0306 14003KT 1/2SM FG VV002
FM022100 28007KT P6SM SCT008
FM030200 33004KT 1/2SM FG BKN003
TAF ENZV 0206/0306 26008KT 9999 FEW015 SCT025
From batch tds/tafs/production/2022/10/2/h05_m59_tafs.cache.xml
Issued (37 minutes ago)
Forecasts TAF ENZV 0206/0306 26008KT 9999 FEW015 SCT025
TEMPO 0206/0216 SHRA BKN014 SCT030CB
BECMG 0211/0213 32015KT
PROB40
TEMPO 0216/0306 SHRA BKN018TCU
BECMG 0304/0306 33005KT
KMFR 020557Z 0206/0306 00000KT P6SM SKC
From batch tds/tafs/production/2022/10/2/h05_m59_tafs.cache.xml
Issued (37 minutes ago)
Forecasts KMFR 020557Z 0206/0306 00000KT P6SM SKC
TAF ENBR 0206/0306 14008KT 9999 -SHRA FEW015 SCT025
From batch tds/tafs/production/2022/10/2/h05_m59_tafs.cache.xml
Issued (37 minutes ago)
Forecasts TAF ENBR 0206/0306 14008KT 9999 -SHRA FEW015 SCT025
TEMPO 0206/0216 4000 SHRA BKN008 SCT020CB
BECMG 0211/0213 29012KT
PROB40
TEMPO 0216/0306 SHRA BKN018TCU
BECMG 0222/0224 VRB03KT
TAF AMD UIUU 020556Z 0205/0306 29008G13MPS 9999 -SHSN BKN030CB
From batch tds/tafs/production/2022/10/2/h06_m29_tafs.cache.xml
Issued (38 minutes ago)
Forecasts TAF AMD UIUU 020556Z 0205/0306 29008G13MPS 9999 -SHSN BKN030CB
TEMPO 0205/0306 34003G08MPS 1900 SHSN VV003
TAF ENOL 0206/0306 14008KT 9999 FEW030 BKN060
From batch tds/tafs/production/2022/10/2/h05_m59_tafs.cache.xml
Issued (40 minutes ago)
Forecasts TAF ENOL 0206/0306 14008KT 9999 FEW030 BKN060
TEMPO 0208/0212 SHRA SCT010 BKN020CB
TEMPO 0212/0220 FEW020CB
BECMG 0217/0220 23012KT
TEMPO 0220/0306 25015G25KT 4000 SHRA BKN014 SCT020CB
TAF ENSB 0206/0306 25005KT 9999 FEW010 BKN025
From batch tds/tafs/production/2022/10/2/h05_m59_tafs.cache.xml
Issued (40 minutes ago)
Forecasts TAF ENSB 0206/0306 25005KT 9999 FEW010 BKN025
PROB30
TEMPO 0206/0306 BKN008
TAF ENRY 0206/0306 01010KT 9999 FEW012 BKN030
From batch tds/tafs/production/2022/10/2/h05_m59_tafs.cache.xml
Issued (40 minutes ago)
Forecasts TAF ENRY 0206/0306 01010KT 9999 FEW012 BKN030
TEMPO 0206/0208 BKN012
BECMG 0214/0216 VRB05KT
PROB40 0221/0224 0500 FG VV001
TAF ENNA 0206/0306 19008KT 9999 FEW008 BKN025
From batch tds/tafs/production/2022/10/2/h05_m59_tafs.cache.xml
Issued (40 minutes ago)
Forecasts TAF ENNA 0206/0306 19008KT 9999 FEW008 BKN025
TEMPO 0206/0214 BKN008
TAF ENEV 0206/0306 14006KT 9999 SCT045
From batch tds/tafs/production/2022/10/2/h05_m59_tafs.cache.xml
Issued (40 minutes ago)
Forecasts TAF ENEV 0206/0306 14006KT 9999 SCT045
TEMPO 0222/0306 BKN012
TEMPO 0303/0306 SHRA
TAF ENTO 0206/0306 01010KT 9999 -RA BKN005
From batch tds/tafs/production/2022/10/2/h05_m59_tafs.cache.xml
Issued (40 minutes ago)
Forecasts TAF ENTO 0206/0306 01010KT 9999 -RA BKN005
BECMG 0207/0209 BKN025
BECMG 0214/0216 VRB05KT
BECMG 0221/0223 33010KT
PROB30 0221/0224 2000 BR VV002
TAF ENVA 0206/0306 10008KT 9999 -SHRA FEW030 BKN060
From batch tds/tafs/production/2022/10/2/h05_m59_tafs.cache.xml
Issued (40 minutes ago)
Forecasts TAF ENVA 0206/0306 10008KT 9999 -SHRA FEW030 BKN060
TEMPO 0206/0216 4000 SHRA BKN008 SCT020CB
TEMPO 0220/0306 4000 SHRA BKN012 SCT020CB
TAF ENTC 0206/0306 VRB05KT 9999 FEW040
From batch tds/tafs/production/2022/10/2/h05_m59_tafs.cache.xml
Issued (40 minutes ago)
Forecasts TAF ENTC 0206/0306 VRB05KT 9999 FEW040
TAF ENGC 0206/0306 24020KT 9999 -SHRA FEW015
From batch tds/tafs/production/2022/10/2/h05_m59_tafs.cache.xml
Issued (40 minutes ago)
Forecasts TAF ENGC 0206/0306 24020KT 9999 -SHRA FEW015
TEMPO 0206/0213 SHRA BKN012 SCT020CB
TEMPO 0213/0306 SCT020TCU
TAF ENAN 0206/0306 18008KT 9999 SCT045
From batch tds/tafs/production/2022/10/2/h05_m59_tafs.cache.xml
Issued (40 minutes ago)
Forecasts TAF ENAN 0206/0306 18008KT 9999 SCT045
TAF EGTK 020552Z 0206/0215 30006KT 9000 NSC
From batch tds/tafs/production/2022/10/2/h05_m59_tafs.cache.xml
Issued (42 minutes ago)
Forecasts TAF EGTK 020552Z 0206/0215 30006KT 9000 NSC
BECMG 0206/0209 CAVOK
PROB30
TEMPO 0209/0212 8000 RA
PROB30
TEMPO 0213/0215 BKN045
ENOA 0206/0306 26020KT 9999 -SHRA FEW020
From batch tds/tafs/production/2022/10/2/h05_m59_tafs.cache.xml
Issued (43 minutes ago)
Forecasts ENOA 0206/0306 26020KT 9999 -SHRA FEW020
TEMPO 0206/0213 SHRA BKN012 SCT020CB
TEMPO 0206/0306 SCT020TCU
TAF COR SPJC 020550Z 0206/0306 16006KT 8000 OVC008 TX17/0219Z TN14/0211Z
From batch tds/tafs/production/2022/10/2/h05_m59_tafs.cache.xml
Issued (44 minutes ago)
Forecasts TAF COR SPJC 020550Z 0206/0306 16006KT 8000 OVC008 TX17/0219Z TN14/0211Z
BECMG 0208/0211 4000 BR
BECMG 0215/0218 18010KT 8000 NSW BKN018
BECMG 0221/0224 OVC010
TAF AMD CYPR 020550Z 0205/0213 VRB03KT P6SM FEW003 SCT015
From batch tds/tafs/production/2022/10/2/h05_m59_tafs.cache.xml
Issued (44 minutes ago)
Forecasts TAF AMD CYPR 020550Z 0205/0213 VRB03KT P6SM FEW003 SCT015
TEMPO 0205/0213 1/4SM FG BKN003 OVC015 RMK FCST BASED ON AUTO OBS. NXT FCST BY 020700Z
KLEB 020549Z 0206/0306 36005KT P6SM BKN015
From batch tds/tafs/production/2022/10/2/h05_m59_tafs.cache.xml
Issued (about 1 hour ago)
Forecasts KLEB 020549Z 0206/0306 36005KT P6SM BKN015
FM021300 36008KT P6SM SCT035 SCT250
KSBY 020548Z 0206/0306 VRB04KT 3SM -RA BR OVC004
From batch tds/tafs/production/2022/10/2/h05_m59_tafs.cache.xml
Issued (about 1 hour ago)
Forecasts KSBY 020548Z 0206/0306 VRB04KT 3SM -RA BR OVC004
FM020800 VRB04KT 2SM -RA BR OVC003
FM021200 02007KT 2SM -RA BR OVC003
FM021600 03012G19KT 4SM RA BR OVC005
FM021800 03014G22KT 3SM RA BR OVC006
FM030300 02018G30KT 2SM RA BR OVC006
KBLF 020548Z 0206/0306 30007KT 3/4SM -DZ BR OVC004
From batch tds/tafs/production/2022/10/2/h05_m59_tafs.cache.xml
Issued (about 1 hour ago)
Forecasts KBLF 020548Z 0206/0306 30007KT 3/4SM -DZ BR OVC004
TEMPO 0206/0210 3/4SM -DZ BR VV003
FM021000 32007KT 1/2SM DZ FG VV002
FM021400 33007KT 3SM -RADZ BR OVC004
FM021700 34008KT 4SM -DZ BR OVC005
KBCB 020548Z 0206/0306 30005KT P6SM -DZ OVC013
From batch tds/tafs/production/2022/10/2/h05_m59_tafs.cache.xml
Issued (about 1 hour ago)
Forecasts KBCB 020548Z 0206/0306 30005KT P6SM -DZ OVC013
FM020900 32005KT 3SM -DZ BR OVC011
FM021400 34006KT 3SM -RADZ BR OVC007
FM030000 01006KT 3SM -DZ BR OVC004
TAF AMD UUBP 020548Z 0206/0215 05003G08MPS 6000 BKN016
From batch tds/tafs/production/2022/10/2/h05_m59_tafs.cache.xml
Issued (about 1 hour ago)
Forecasts TAF AMD UUBP 020548Z 0206/0215 05003G08MPS 6000 BKN016
TEMPO 0206/0215 2900 -SHRA BR BKN007 BKN012CB
PROB40
TEMPO 0209/0215 -TSRA BKN006 BKN011CB
KLYH 020548Z 0206/0306 35005KT 6SM -DZ BR OVC010
From batch tds/tafs/production/2022/10/2/h05_m59_tafs.cache.xml
Issued (about 1 hour ago)
Forecasts KLYH 020548Z 0206/0306 35005KT 6SM -DZ BR OVC010
FM021000 36006KT 5SM -DZ BR OVC007
FM021400 01008G16KT 3SM -RA BR OVC006
FM030200 02007KT 4SM -RADZ BR OVC004
KDAN 020548Z 0206/0306 34006KT 6SM -DZ BR OVC015
From batch tds/tafs/production/2022/10/2/h05_m59_tafs.cache.xml
Issued (about 1 hour ago)
Forecasts KDAN 020548Z 0206/0306 34006KT 6SM -DZ BR OVC015
FM021000 35007KT 5SM -DZ BR OVC009
FM021600 01008G16KT 4SM -RA BR OVC012
FM030200 02007KT 4SM -RADZ BR OVC008 AMD NOT SKED
TAF AMD WMKN 020548Z 0206/0306 23006KT 9999 FEW018
From batch tds/tafs/production/2022/10/2/h05_m59_tafs.cache.xml
Issued (about 1 hour ago)
Forecasts TAF AMD WMKN 020548Z 0206/0306 23006KT 9999 FEW018
TEMPO 0206/0210 8000 -TSRA FEW017CB
TEMPO 0216/0220 2000 +TSRA FEW017CB
KROA 020548Z 0206/0306 31005KT P6SM -DZ OVC025
From batch tds/tafs/production/2022/10/2/h05_m59_tafs.cache.xml
Issued (about 1 hour ago)
Forecasts KROA 020548Z 0206/0306 31005KT P6SM -DZ OVC025
FM021000 32006KT 5SM -DZ BR OVC015
FM021500 33008G16KT 4SM -RADZ BR OVC015
FM030100 36008G16KT 5SM -DZ BR OVC013
KLWB 020548Z 0206/0306 35003KT 3SM -DZ BR OVC015
From batch tds/tafs/production/2022/10/2/h05_m59_tafs.cache.xml
Issued (about 1 hour ago)
Forecasts KLWB 020548Z 0206/0306 35003KT 3SM -DZ BR OVC015
FM020800 01004KT 3SM -RADZ BR SCT002 OVC013
FM021300 01006KT 3SM -RADZ BR SCT003 OVC012
FM022300 02007KT 2SM -DZ BR OVC009
TAF CYQB 020546Z 0206/0306 06005KT P6SM SKC
From batch tds/tafs/production/2022/10/2/h05_m59_tafs.cache.xml
Issued (about 1 hour ago)
Forecasts TAF CYQB 020546Z 0206/0306 06005KT P6SM SKC
BECMG 0213/0215 08008KT
FM030000 02005KT P6SM SKC RMK NXT FCST BY 021200Z
TAF CYUL 020546Z 0206/0306 03015G25KT P6SM FEW040
From batch tds/tafs/production/2022/10/2/h05_m59_tafs.cache.xml
Issued (about 1 hour ago)
Forecasts TAF CYUL 020546Z 0206/0306 03015G25KT P6SM FEW040
FM021500 03012G22KT P6SM SKC
BECMG 0221/0223 03008KT RMK NXT FCST BY 020900Z
TAF CYHU 020546Z 0206/0306 02012KT P6SM SKC
From batch tds/tafs/production/2022/10/2/h05_m59_tafs.cache.xml
Issued (about 1 hour ago)
Forecasts TAF CYHU 020546Z 0206/0306 02012KT P6SM SKC
FM021500 03012G22KT P6SM SKC
BECMG 0220/0222 02007KT RMK FCST BASED ON AUTO OBS. NXT FCST BY 021200Z
TAF CYUY 020546Z 0206/0218 04005KT P6SM SKC
From batch tds/tafs/production/2022/10/2/h05_m59_tafs.cache.xml
Issued (about 1 hour ago)
Forecasts TAF CYUY 020546Z 0206/0218 04005KT P6SM SKC
PROB30 0206/0214 1SM BR BKN003 RMK NXT FCST BY 021200Z
TAF CYVO 020546Z 0206/0218 35005KT P6SM SKC
From batch tds/tafs/production/2022/10/2/h05_m59_tafs.cache.xml
Issued (about 1 hour ago)
Forecasts TAF CYVO 020546Z 0206/0218 35005KT P6SM SKC
PROB30 0206/0218 1SM BR BKN003 RMK FCST BASED ON AUTO OBS. NXT FCST BY 021200Z
TAF CYMO 020546Z 0206/0218 31005KT P6SM SKC
From batch tds/tafs/production/2022/10/2/h05_m59_tafs.cache.xml
Issued (about 1 hour ago)
Forecasts TAF CYMO 020546Z 0206/0218 31005KT P6SM SKC
BECMG 0206/0208 VRB03KT
FM021500 21010KT P6SM SKC RMK FCST BASED ON AUTO OBS. NXT FCST BY 021200Z
TAF COR KECG 020546Z 0206/0306 29004KT P6SM BKN060
From batch tds/tafs/production/2022/10/2/h05_m59_tafs.cache.xml
Issued (about 1 hour ago)
Forecasts TAF COR KECG 020546Z 0206/0306 29004KT P6SM BKN060
FM021700 31007KT P6SM SCT050
FM022300 32007KT P6SM BKN030
FM030100 32008KT 6SM -RA BR BKN009
FM030300 32010KT 6SM -RA BR BKN007
KLWT 020545Z 0206/0306 VRB06KT P6SM OVC014
From batch tds/tafs/production/2022/10/2/h05_m59_tafs.cache.xml
Issued (about 1 hour ago)
Forecasts KLWT 020545Z 0206/0306 VRB06KT P6SM OVC014
FM021500 VRB06KT 3SM -RA BR OVC007
FM022000 VRB06KT P6SM SCT012 OVC025
KHLN 020545Z 0206/0306 26005KT P6SM OVC025
From batch tds/tafs/production/2022/10/2/h05_m59_tafs.cache.xml
Issued (about 1 hour ago)
Forecasts KHLN 020545Z 0206/0306 26005KT P6SM OVC025
FM021200 VRB04KT P6SM BKN040
FM030000 VRB05KT P6SM SCT060
PROB30 0300/0306 4SM -RA BKN060
KGTF 020545Z 0206/0306 VRB06KT 6SM BR SCT005 OVC010
From batch tds/tafs/production/2022/10/2/h05_m59_tafs.cache.xml
Issued (about 1 hour ago)
Forecasts KGTF 020545Z 0206/0306 VRB06KT 6SM BR SCT005 OVC010
TEMPO 0206/0210 3SM BR OVC005
FM021500 VRB06KT P6SM SCT030 OVC070
FM022300 VRB04KT P6SM SCT060
KBZN 020545Z 0206/0312 VRB06KT 6SM -SHRA SCT008 OVC030
From batch tds/tafs/production/2022/10/2/h05_m59_tafs.cache.xml
Issued (about 1 hour ago)
Forecasts KBZN 020545Z 0206/0312 VRB06KT 6SM -SHRA SCT008 OVC030
TEMPO 0208/0212 5SM -RA BR BKN008
FM021900 VRB06KT P6SM BKN035
PROB30 0219/0223 4SM -RA OVC035
TAF CYOW 020545Z 0206/0306 02012KT P6SM FEW040
From batch tds/tafs/production/2022/10/2/h05_m59_tafs.cache.xml
Issued (about 1 hour ago)
Forecasts TAF CYOW 020545Z 0206/0306 02012KT P6SM FEW040
FM021500 02012G22KT P6SM SKC
BECMG 0220/0222 01008KT RMK NXT FCST BY 020900Z
KEKS 020545Z 0206/0306 35009KT 5SM -RA BR OVC005
From batch tds/tafs/production/2022/10/2/h05_m59_tafs.cache.xml
Issued (about 1 hour ago)
Forecasts KEKS 020545Z 0206/0306 35009KT 5SM -RA BR OVC005
FM021500 00000KT P6SM VCSH OVC013
PROB30 0218/0221 4SM -RA BR OVC015
FM022100 24009KT P6SM BKN030
PROB30 0221/0224 3SM -RA BR OVC030
KDUJ 020545Z 0206/0306 04010KT P6SM SCT025 BKN040
From batch tds/tafs/production/2022/10/2/h05_m59_tafs.cache.xml
Issued (about 1 hour ago)
Forecasts KDUJ 020545Z 0206/0306 04010KT P6SM SCT025 BKN040
FM021200 04010G20KT P6SM SCT080
FM022200 04007KT P6SM SKC
KWYS 020545Z 0206/0306 VRB06KT 6SM -RA SCT018 OVC030
From batch tds/tafs/production/2022/10/2/h05_m59_tafs.cache.xml
Issued (about 1 hour ago)
Forecasts KWYS 020545Z 0206/0306 VRB06KT 6SM -RA SCT018 OVC030
TEMPO 0210/0214 VRB06KT 3SM -RA BR OVC008
FM021600 VRB06KT P6SM BKN035
PROB30 0218/0222 3SM -SHRA BR OVC025
KCTB 020545Z 0206/0306 15005KT 4SM -SHRA BR SCT004 OVC024
From batch tds/tafs/production/2022/10/2/h05_m59_tafs.cache.xml
Issued (about 1 hour ago)
Forecasts KCTB 020545Z 0206/0306 15005KT 4SM -SHRA BR SCT004 OVC024
TEMPO 0206/0210 2SM BR BKN002
FM021600 VRB04KT P6SM SCT035 BKN070
TAF CYMX 020545Z 0206/0306 VRB03KT P6SM FEW250
From batch tds/tafs/production/2022/10/2/h05_m59_tafs.cache.xml
Issued (about 1 hour ago)
Forecasts TAF CYMX 020545Z 0206/0306 VRB03KT P6SM FEW250
FM021500 05010G20KT P6SM SKC
BECMG 0220/0222 02005KT RMK NXT FCST BY 021200Z
KHVR 020545Z 0206/0306 08007KT P6SM SCT010 OVC020
From batch tds/tafs/production/2022/10/2/h05_m59_tafs.cache.xml
Issued (about 1 hour ago)
Forecasts KHVR 020545Z 0206/0306 08007KT P6SM SCT010 OVC020
TEMPO 0206/0210 5SM BR BKN008
FM021800 08007KT P6SM SCT015 BKN070
TAF AMD EFRO 020544Z 0206/0306 13009KT 9000 BKN006
From batch tds/tafs/production/2022/10/2/h05_m59_tafs.cache.xml
Issued (about 1 hour ago)
Forecasts TAF AMD EFRO 020544Z 0206/0306 13009KT 9000 BKN006
BECMG 0206/0207 BKN003
TEMPO 0206/0211 2000 BR
TEMPO 0212/0215 3000 -DZRA BR VV001
PROB40 0212/0215 0500 FG
BECMG 0215/0217 0300 FG VV001
TEMPO 0217/0306 2000 -DZ BR BKN002
talk